Terminal Aerodrome Forecast
Issued by NWS

Home | Current Version | Previous Version | Text Only | Print | Product List | Glossary On
Versions: 1 2 3 4 5 6 7 8 9 10 11 12 13 14 15 16 17 18 19 20
000
FTUS41 KCLE 201139
TAFFDY
TAF
KFDY 201139Z 2012/2112 12008KT 4SM -RA BR OVC007
      TEMPO 2012/2014 2SM -RA BR
     FM201400 17008KT 4SM BR OVC005
     FM201800 23008KT P6SM OVC007
     FM202100 20008KT P6SM OVC012
     FM210600 16004KT 4SM BR OVC005=

USA.gov is the U.S. government's official web portal to all federal, state and local government web resources and services.